D/T METAR WX W/DIR W/SPE G/SPE TEMP DEWP
20/06/19 15:30 EIDL 201430Z 27013KT CAVOK 14/08 Q1011 W (270°) 15.0mph 14°C 8°C
20/06/19 15:00 EIDL 201400Z 27013KT CAVOK 13/08 Q1010 W (270°) 15.0mph 13°C 8°C
20/06/19 14:30 EIDL 201330Z 28014KT CAVOK 14/08 Q1010 W (280°) 16.1mph 14°C 8°C
20/06/19 14:00 EIDL 201300Z 28015KT 9999 FEW024 14/09 Q1010 W (280°) 17.3mph 14°C 9°C
20/06/19 13:30 EIDL 201230Z 27014KT 9999 SCT025 14/08 Q1010 W (270°) 16.1mph 14°C 8°C
20/06/19 13:00 EIDL 201200Z 27013KT 9999 FEW024 13/08 Q1010 W (270°) 15.0mph 13°C 8°C
20/06/19 12:30 EIDL 201130Z 27014KT 9999 FEW026 13/08 Q1010 W (270°) 16.1mph 13°C 8°C
20/06/19 12:00 EIDL 201100Z 28014KT 9999 SCT024 13/08 Q1009 W (280°) 16.1mph 13°C 8°C
20/06/19 11:30 EIDL 201030Z 27011KT 9999 -RA SCT021 11/08 Q1009 -RA W (270°) 12.7mph 11°C 8°C
20/06/19 11:00 EIDL 201000Z 26012KT 9999 FEW022 13/08 Q1009 W (260°) 13.8mph 13°C 8°C
20/06/19 10:30 EIDL 200930Z 27012KT 9999 FEW023 12/07 Q1009 W (270°) 13.8mph 12°C 7°C
20/06/19 10:00 EIDL 200900Z 27012KT CAVOK 12/07 Q1009 W (270°) 13.8mph 12°C 7°C
20/06/19 09:30 EIDL 200830Z 27015KT 9999 FEW026 BKN049 11/07 Q1009 W (270°) 17.3mph 11°C 7°C
20/06/19 09:00 EIDL 200800Z 29014KT 9999 FEW023 12/07 Q1008 WNW (290°) 16.1mph 12°C 7°C
20/06/19 08:30 EIDL 200730Z 28014KT 9999 SCT022 11/06 Q1008 W (280°) 16.1mph 11°C 6°C
20/06/19 08:00 EIDL 200700Z 28014KT 9999 FEW022 11/06 Q1008 W (280°) 16.1mph 11°C 6°C
20/06/19 07:30 EIDL 200630Z 28014KT 9999 FEW023 11/06 Q1007 W (280°) 16.1mph 11°C 6°C
19/06/19 19:30 EIDL 191830Z 24008KT 9999 -RA OVC046 11/09 Q1006 RERA -RA WSW (240°) 9.2mph 11°C 9°C
19/06/19 19:00 EIDL 191800Z 26011KT 6000 RA FEW008 SCT030 OVC045 11/09 Q1006 RA W (260°) 12.7mph 11°C 9°C
19/06/19 18:30 EIDL 191730Z 25012KT 9999 -RA SCT015 12/10 Q1006 -RA WSW (250°) 13.8mph 12°C 10°C
19/06/19 18:00 EIDL 191700Z 25012KT 9999 -RA SCT015 12/10 Q1006 -RA WSW (250°) 13.8mph 12°C 10°C
19/06/19 17:30 EIDL 191630Z 24012KT 9999 -RA SCT017 BKN042 OVC049 12/09 Q1006 -RA WSW (240°) 13.8mph 12°C 9°C
19/06/19 17:00 EIDL 191600Z 24012KT 9999 -RA SCT042 12/09 Q1006 -RA WSW (240°) 13.8mph 12°C 9°C
19/06/19 16:30 EIDL 191530Z 24014KT 9999 FEW016 13/09 Q1006 WSW (240°) 16.1mph 13°C 9°C
19/06/19 16:00 EIDL 191500Z 24012KT 9999 -RA SCT013 BKN038 12/10 Q1006 -RA WSW (240°) 13.8mph 12°C 10°C
19/06/19 15:30 EIDL 191430Z 24012KT 9999 -RA FEW018 12/09 Q1007 -RA WSW (240°) 13.8mph 12°C 9°C
19/06/19 15:00 EIDL 191400Z 25014KT 9999 -RA FEW015 BKN027 OVC032 12/07 Q1007 -RA WSW (250°) 16.1mph 12°C 7°C
19/06/19 14:30 EIDL 191330Z 24016KT 9999 FEW014 BKN017 13/09 Q1007 WSW (240°) 18.4mph 13°C 9°C
19/06/19 14:00 EIDL 191300Z 24017KT 9999 BKN016 13/10 Q1007 WSW (240°) 19.6mph 13°C 10°C
19/06/19 13:30 EIDL 191230Z 24016KT 9999 BKN016 13/09 Q1007 WSW (240°) 18.4mph 13°C 9°C
19/06/19 13:00 EIDL 191200Z 23017KT 9999 FEW012 BKN015 13/10 Q1006 SW (230°) 19.6mph 13°C 10°C
19/06/19 12:30 EIDL 191130Z 23017KT 9999 SCT011 BKN049 13/11 Q1007 SW (230°) 19.6mph 13°C 11°C
19/06/19 12:00 EIDL 191100Z 23014KT 9999 -RA FEW012 BKN028 BKN046 12/11 Q1006 -RA SW (230°) 16.1mph 12°C 11°C
19/06/19 11:30 EIDL 191030Z 24013KT 9999 -RA BKN015 12/11 Q1006 -RA WSW (240°) 15.0mph 12°C 11°C
19/06/19 11:00 EIDL 191000Z 26014KT 9999 -RA FEW014 BKN025 12/10 Q1007 RERA -RA W (260°) 16.1mph 12°C 10°C
19/06/19 10:30 EIDL 190930Z 24013KT 9999 -RA OVC017 12/10 Q1007 RERA -RA WSW (240°) 15.0mph 12°C 10°C
19/06/19 10:00 EIDL 190900Z 24014KT 9999 BKN017 13/09 Q1007 WSW (240°) 16.1mph 13°C 9°C
19/06/19 09:30 EIDL 190830Z 24013KT 9999 FEW016 SCT019 13/10 Q1007 WSW (240°) 15.0mph 13°C 10°C
19/06/19 09:00 EIDL 190800Z 24013KT 9999 FEW014 SCT039 12/10 Q1007 WSW (240°) 15.0mph 12°C 10°C
19/06/19 08:30 EIDL 190730Z 24012KT 9999 -RA SCT010 BKN039 11/10 Q1007 -RA WSW (240°) 13.8mph 11°C 10°C
19/06/19 08:00 EIDL 190700Z 23011KT 9999 -RA FEW012 OVC022 12/10 Q1007 -RA SW (230°) 12.7mph 12°C 10°C
18/06/19 20:00 EIDL 181900Z 24011KT 9999 FEW018 SCT042 13/08 Q1010 WSW (240°) 12.7mph 13°C 8°C
18/06/19 19:30 EIDL 181830Z 24012KT 9999 SCT019 SCT026 14/09 Q1010 WSW (240°) 13.8mph 14°C 9°C
18/06/19 19:00 EIDL 181800Z 24011KT 9999 BKN019 15/10 Q1010 WSW (240°) 12.7mph 15°C 10°C
18/06/19 18:30 EIDL 181730Z 26011KT 9999 FEW017 15/09 Q1010 W (260°) 12.7mph 15°C 9°C
18/06/19 17:30 EIDL 181630Z 24014KT 9999 SCT014 14/09 Q1010 WSW (240°) 16.1mph 14°C 9°C
18/06/19 17:00 EIDL 181600Z 24013KT 9999 FEW013 SCT015 14/09 Q1010 WSW (240°) 15.0mph 14°C 9°C
18/06/19 16:30 EIDL 181530Z 24016KT 9999 BKN017 14/09 Q1010 WSW (240°) 18.4mph 14°C 9°C